createdAt,value
2018-05-15T00:00:57.446Z,12.48
2018-05-15T00:01:57.432Z,12.48
2018-05-15T00:03:11.682Z,12.51
2018-05-15T00:03:57.434Z,12.49
2018-05-15T00:04:57.436Z,12.46
2018-05-15T00:05:57.534Z,12.46
2018-05-15T00:06:57.437Z,12.42
2018-05-15T00:08:02.793Z,12.44
2018-05-15T00:08:57.436Z,12.56
2018-05-15T00:09:57.426Z,12.44
2018-05-15T00:10:57.459Z,12.42
2018-05-15T00:11:57.434Z,12.41
2018-05-15T00:12:57.431Z,12.42
2018-05-15T00:13:57.591Z,12.38
2018-05-15T00:14:57.449Z,12.41
2018-05-15T00:15:57.435Z,12.39
2018-05-15T00:16:57.435Z,12.26
2018-05-15T00:17:57.432Z,12.26
2018-05-15T00:18:57.429Z,12.19
2018-05-15T00:19:57.471Z,12.21
2018-05-15T00:20:57.423Z,12.16
2018-05-15T00:21:57.445Z,12.13
2018-05-15T00:22:57.432Z,12.12
2018-05-15T00:23:57.432Z,12.15
2018-05-15T00:24:57.468Z,12.13
2018-05-15T00:25:57.428Z,12.13
2018-05-15T00:26:57.424Z,12.09
2018-05-15T00:27:57.425Z,12.06
2018-05-15T00:28:57.421Z,12.06
2018-05-15T00:29:57.477Z,12.06
2018-05-15T00:30:57.421Z,11.99
2018-05-15T00:31:57.432Z,11.96
2018-05-15T00:32:57.425Z,11.77
2018-05-15T00:33:57.426Z,11.80
2018-05-15T00:34:57.482Z,11.89
2018-05-15T00:35:57.421Z,11.97
2018-05-15T00:36:57.422Z,11.77
2018-05-15T00:37:57.422Z,11.86
2018-05-15T00:38:57.642Z,11.77
2018-05-15T00:39:57.464Z,11.82
2018-05-15T00:40:57.423Z,11.87
2018-05-15T00:41:57.415Z,11.75
2018-05-15T00:42:57.414Z,11.75
2018-05-15T00:43:57.415Z,11.74
2018-05-15T00:44:59.341Z,11.77
2018-05-15T00:45:57.419Z,11.75
2018-05-15T00:46:57.411Z,11.85
2018-05-15T00:47:57.415Z,11.74
2018-05-15T00:48:57.422Z,11.74
2018-05-15T00:49:57.415Z,11.70
2018-05-15T00:51:05.191Z,11.71
2018-05-15T00:51:57.408Z,11.57
2018-05-15T00:52:57.409Z,11.54
2018-05-15T00:53:58.292Z,11.59
2018-05-15T00:54:57.412Z,11.52
2018-05-15T00:55:57.455Z,11.70
2018-05-15T00:56:57.401Z,11.67
2018-05-15T00:57:57.404Z,11.53
2018-05-15T00:58:57.471Z,11.59
2018-05-15T00:59:57.400Z,11.50
2018-05-15T01:00:57.785Z,11.54
2018-05-15T01:01:57.405Z,11.44
2018-05-15T01:02:57.396Z,11.52
2018-05-15T01:03:57.404Z,11.59
2018-05-15T01:04:57.400Z,11.46
2018-05-15T01:05:57.417Z,11.46
2018-05-15T01:07:08.182Z,11.39
2018-05-15T01:07:58.334Z,11.31
2018-05-15T01:08:57.402Z,11.36
2018-05-15T01:09:57.417Z,11.36
2018-05-15T01:10:57.435Z,11.27
2018-05-15T01:11:57.391Z,11.28
2018-05-15T01:12:57.386Z,11.25
2018-05-15T01:13:57.386Z,11.19
2018-05-15T01:14:57.394Z,11.21
2018-05-15T01:15:57.422Z,11.24
2018-05-15T01:16:57.383Z,11.21
2018-05-15T01:17:57.384Z,11.19
2018-05-15T01:18:57.391Z,11.16
2018-05-15T01:19:57.412Z,11.19
2018-05-15T01:22:29.017Z,11.24
2018-05-15T01:23:28.977Z,11.21
2018-05-15T01:24:28.969Z,11.17
2018-05-15T01:25:34.136Z,11.21
2018-05-15T01:26:28.972Z,11.11
2018-05-15T01:27:28.982Z,11.13
2018-05-15T01:28:28.968Z,11.02
2018-05-15T01:29:28.964Z,11.01
2018-05-15T01:30:28.973Z,11.03
2018-05-15T01:31:29.436Z,10.92
2018-05-15T01:32:28.968Z,10.98
2018-05-15T01:33:28.969Z,10.98
2018-05-15T01:34:28.958Z,10.95
2018-05-15T01:35:29.107Z,10.83
2018-05-15T01:36:28.966Z,10.96
2018-05-15T01:37:28.968Z,10.98
2018-05-15T01:38:28.976Z,10.89
2018-05-15T01:39:28.966Z,10.98
2018-05-15T01:40:28.973Z,10.88
2018-05-15T01:41:30.638Z,10.98
2018-05-15T01:42:29.024Z,10.98
2018-05-15T01:43:28.950Z,11.07
2018-05-15T01:44:28.952Z,11.01
2018-05-15T01:45:29.147Z,10.91
2018-05-15T01:46:28.949Z,10.99
2018-05-15T01:47:28.945Z,10.94
2018-05-15T01:48:28.944Z,10.98
2018-05-15T01:49:28.952Z,10.91
2018-05-15T01:50:28.944Z,10.91
2018-05-15T01:51:29.028Z,10.96
2018-05-15T01:52:28.941Z,10.99
2018-05-15T01:53:28.944Z,10.94
2018-05-15T01:54:28.941Z,10.81
2018-05-15T01:55:28.959Z,10.88
2018-05-15T01:56:50.768Z,10.84
2018-05-15T01:57:28.936Z,10.81
2018-05-15T01:58:28.934Z,10.77
2018-05-15T01:59:28.933Z,10.81
2018-05-15T02:02:00.612Z,10.68
2018-05-15T02:03:00.608Z,10.70
2018-05-15T02:04:00.602Z,10.63
2018-05-15T02:05:00.599Z,10.63
2018-05-15T02:06:02.194Z,10.63
2018-05-15T02:07:00.599Z,10.55
2018-05-15T02:08:00.594Z,10.62
2018-05-15T02:09:00.599Z,10.59
2018-05-15T02:10:00.593Z,10.65
2018-05-15T02:12:53.240Z,10.51
2018-05-15T02:13:32.199Z,10.44
2018-05-15T02:14:32.199Z,10.43
2018-05-15T02:15:32.202Z,10.43
2018-05-15T02:16:50.347Z,10.42
2018-05-15T02:17:32.196Z,10.42
2018-05-15T02:18:32.192Z,10.37
2018-05-15T02:19:32.192Z,10.42
2018-05-15T02:20:32.193Z,10.42
2018-05-15T02:23:03.852Z,10.32
2018-05-15T02:24:04.196Z,10.32
2018-05-15T02:25:03.809Z,10.34
2018-05-15T02:26:04.445Z,10.36
2018-05-15T02:27:03.805Z,10.40
2018-05-15T02:28:03.805Z,10.33
2018-05-15T02:29:03.802Z,10.44
2018-05-15T02:30:03.802Z,10.40
2018-05-15T02:31:25.439Z,10.36
2018-05-15T02:32:03.796Z,10.40
2018-05-15T02:33:03.818Z,10.37
2018-05-15T02:34:03.799Z,10.46
2018-05-15T02:35:03.799Z,10.39
2018-05-15T02:36:03.943Z,10.39
2018-05-15T02:37:03.796Z,10.43
2018-05-15T02:38:03.792Z,10.36
2018-05-15T02:39:04.516Z,10.36
2018-05-15T02:40:03.789Z,10.40
2018-05-15T02:41:04.439Z,10.34
2018-05-15T02:42:03.789Z,10.46
2018-05-15T02:43:04.268Z,10.42
2018-05-15T02:44:03.856Z,10.36
2018-05-15T02:45:03.780Z,10.43
2018-05-15T02:49:07.109Z,10.07
2018-05-15T02:50:07.064Z,10.00
2018-05-15T02:51:21.178Z,9.83
2018-05-15T02:52:07.060Z,9.94
2018-05-15T02:53:07.058Z,9.83
2018-05-15T02:54:07.059Z,9.94
2018-05-15T02:55:07.062Z,9.85
2018-05-15T02:56:08.509Z,9.96
2018-05-15T02:57:07.056Z,10.06
2018-05-15T02:58:07.049Z,10.06
2018-05-15T02:59:07.069Z,10.06
2018-05-15T03:00:07.050Z,10.03
2018-05-15T03:02:44.302Z,9.99
2018-05-15T03:03:38.694Z,9.89
2018-05-15T03:04:38.692Z,9.97
2018-05-15T03:05:52.799Z,9.89
2018-05-15T03:06:39.347Z,10.01
2018-05-15T03:07:38.681Z,10.06
2018-05-15T03:08:38.687Z,10.03
2018-05-15T03:09:38.682Z,10.09
2018-05-15T03:10:38.700Z,10.17
2018-05-15T03:12:00.599Z,10.17
2018-05-15T03:12:38.675Z,10.12
2018-05-15T03:13:38.678Z,10.22
2018-05-15T03:14:38.682Z,10.14
2018-05-15T03:15:38.674Z,10.04
2018-05-15T03:17:13.799Z,10.03
2018-05-15T03:17:38.674Z,10.03
2018-05-15T03:18:39.576Z,10.06
2018-05-15T03:19:38.671Z,10.17
2018-05-15T03:20:38.664Z,10.12
2018-05-15T03:21:38.678Z,10.14
2018-05-15T03:22:46.476Z,10.18
2018-05-15T03:23:38.661Z,10.12
2018-05-15T03:24:38.766Z,10.15
2018-05-15T03:25:38.654Z,10.03
2018-05-15T03:26:38.812Z,10.09
2018-05-15T03:27:38.652Z,10.06
2018-05-15T03:28:38.651Z,10.17
2018-05-15T03:29:39.597Z,10.07
2018-05-15T03:30:38.645Z,10.07
2018-05-15T03:31:38.653Z,10.03
2018-05-15T03:32:38.683Z,10.06
2018-05-15T03:33:38.646Z,10.06
2018-05-15T03:34:38.641Z,10.07
2018-05-15T03:35:38.637Z,10.06
2018-05-15T03:36:38.634Z,10.00
2018-05-15T03:38:13.799Z,9.97
2018-05-15T03:38:38.659Z,9.99
2018-05-15T03:39:38.633Z,10.01
2018-05-15T03:40:38.630Z,9.96
2018-05-15T03:41:38.634Z,9.96
2018-05-15T03:42:38.673Z,10.03
2018-05-15T03:43:38.787Z,9.96
2018-05-15T03:44:38.623Z,9.99
2018-05-15T03:45:38.620Z,9.86
2018-05-15T03:46:38.623Z,9.94
2018-05-15T03:47:41.802Z,10.01
2018-05-15T03:48:38.672Z,9.97
2018-05-15T03:49:38.613Z,9.85
2018-05-15T03:50:38.615Z,9.96
2018-05-15T03:51:38.623Z,9.99
2018-05-15T03:52:38.775Z,9.97
2018-05-15T03:53:38.607Z,9.97
2018-05-15T03:54:38.611Z,9.97
2018-05-15T03:55:38.611Z,9.88
2018-05-15T03:56:38.602Z,9.85
2018-05-15T03:57:38.604Z,9.94
2018-05-15T03:58:38.658Z,9.94
2018-05-15T03:59:38.597Z,10.04
2018-05-15T04:00:38.596Z,10.06
2018-05-15T04:01:38.595Z,10.42
2018-05-15T04:02:41.799Z,10.71
2018-05-15T04:03:38.596Z,11.02
2018-05-15T04:04:38.592Z,11.20
2018-05-15T04:05:38.605Z,11.41
2018-05-15T04:06:38.984Z,11.53
2018-05-15T04:07:38.633Z,11.77
2018-05-15T04:08:38.637Z,11.93
2018-05-15T04:09:38.581Z,12.15
2018-05-15T04:10:38.583Z,12.30
2018-05-15T04:11:38.580Z,12.48
2018-05-15T04:19:09.380Z,12.64
2018-05-15T04:19:45.272Z,12.75
2018-05-15T04:20:45.270Z,12.60
2018-05-15T04:21:45.289Z,12.46
2018-05-15T04:23:24.379Z,12.13
2018-05-15T04:23:45.258Z,11.99
2018-05-15T04:24:45.269Z,11.72
2018-05-15T04:25:45.262Z,11.59
2018-05-15T04:26:45.268Z,11.50
2018-05-15T04:27:45.260Z,11.34
2018-05-15T04:31:51.749Z,11.82
2018-05-15T04:32:48.643Z,12.13
2018-05-15T04:41:56.297Z,13.70
2018-05-15T04:42:30.421Z,13.67
2018-05-15T04:43:32.836Z,13.51
2018-05-15T04:47:32.437Z,13.40
2018-05-15T04:48:32.757Z,13.46
2018-05-15T04:49:55.786Z,13.59
2018-05-15T04:50:30.850Z,13.51
2018-05-15T04:51:30.968Z,13.62
2018-05-15T04:52:31.945Z,13.88
2018-05-15T04:53:31.853Z,14.13
2018-05-15T04:54:31.023Z,14.19
2018-05-15T04:55:31.924Z,14.24
2018-05-15T04:56:31.426Z,14.65
2018-05-15T04:57:30.976Z,14.90
2018-05-15T04:58:30.984Z,15.35
2018-05-15T04:59:30.851Z,15.17
2018-05-15T05:00:30.901Z,14.67
2018-05-15T05:01:32.068Z,14.46
2018-05-15T05:02:30.850Z,14.17
2018-05-15T05:03:32.136Z,13.99
2018-05-15T05:04:44.987Z,14.17
2018-05-15T05:05:30.850Z,14.21
2018-05-15T05:06:30.849Z,14.04
2018-05-15T05:07:30.872Z,14.01
2018-05-15T05:08:32.989Z,14.02
2018-05-15T05:11:04.188Z,14.12
2018-05-15T05:12:02.561Z,13.98
2018-05-15T05:13:04.908Z,13.67
2018-05-15T05:14:02.447Z,13.33
2018-05-15T05:15:13.154Z,13.43
2018-05-15T05:16:04.188Z,13.22
2018-05-15T05:17:04.279Z,13.47
2018-05-15T05:18:03.576Z,13.62
2018-05-15T05:19:02.636Z,13.87
2018-05-15T05:20:02.563Z,13.73
2018-05-15T05:21:04.179Z,13.87
2018-05-15T05:22:05.165Z,13.84
2018-05-15T05:23:02.552Z,13.74
2018-05-15T05:24:03.665Z,13.62
2018-05-15T05:25:03.254Z,13.29
2018-05-15T05:26:02.589Z,13.22
2018-05-15T05:27:02.485Z,13.22
2018-05-15T05:28:02.469Z,13.33
2018-05-15T05:29:03.017Z,13.65
2018-05-15T05:30:02.473Z,13.99
2018-05-15T05:31:25.199Z,14.25
2018-05-15T05:32:02.465Z,14.25
2018-05-15T05:33:02.467Z,14.57
2018-05-15T05:34:02.473Z,14.44
2018-05-15T05:35:02.472Z,14.60
2018-05-15T05:36:20.615Z,14.93
2018-05-15T05:37:02.477Z,15.31
2018-05-15T05:38:02.477Z,15.11
2018-05-15T05:39:02.479Z,15.31
2018-05-15T05:40:02.570Z,15.15
2018-05-15T05:41:02.610Z,15.28
2018-05-15T05:42:02.481Z,15.64
2018-05-15T05:43:02.502Z,15.48
2018-05-15T05:44:02.486Z,15.31
2018-05-15T05:45:02.491Z,14.75
2018-05-15T05:46:03.250Z,14.49
2018-05-15T05:47:02.548Z,14.21
2018-05-15T05:48:02.491Z,14.27
2018-05-15T05:49:02.503Z,14.06
2018-05-15T05:50:02.525Z,14.19
2018-05-15T05:51:02.499Z,14.09
2018-05-15T05:52:04.272Z,14.42
2018-05-15T05:53:02.506Z,14.56
2018-05-15T05:54:02.503Z,15.26
2018-05-15T05:55:02.508Z,15.59
2018-05-15T05:56:02.517Z,15.85
2018-05-15T05:57:05.947Z,15.86
2018-05-15T05:58:02.519Z,16.20
2018-05-15T05:59:02.520Z,15.92
2018-05-15T06:00:02.523Z,16.50
2018-05-15T06:01:02.527Z,16.35
2018-05-15T06:02:10.108Z,16.45
2018-05-15T06:03:03.060Z,16.52
2018-05-15T06:04:02.551Z,15.64
2018-05-15T06:05:02.533Z,16.12
2018-05-15T06:06:02.536Z,16.45
2018-05-15T06:07:02.582Z,17.00
2018-05-15T06:08:03.068Z,17.26
2018-05-15T06:09:02.549Z,17.03
2018-05-15T06:10:02.545Z,15.67
2018-05-15T06:11:02.552Z,15.30
2018-05-15T06:12:02.679Z,15.28
2018-05-15T06:13:02.557Z,15.31
2018-05-15T06:14:02.558Z,15.26
2018-05-15T06:15:02.561Z,15.33
2018-05-15T06:16:02.562Z,15.60
2018-05-15T06:17:02.572Z,15.88
2018-05-15T06:18:03.118Z,15.81
2018-05-15T06:19:02.571Z,15.52
2018-05-15T06:20:02.573Z,15.92
2018-05-15T06:21:02.639Z,16.89
2018-05-15T06:22:03.126Z,17.33
2018-05-15T06:23:02.583Z,17.46
2018-05-15T06:24:02.584Z,16.83
2018-05-15T06:25:02.590Z,16.89
2018-05-15T06:26:02.591Z,16.50
2018-05-15T06:27:02.593Z,16.90
2018-05-15T06:28:04.787Z,17.29
2018-05-15T06:29:02.605Z,17.73
2018-05-15T06:30:02.604Z,17.78
2018-05-15T06:31:02.608Z,17.87
2018-05-15T06:32:02.625Z,17.53
2018-05-15T06:33:17.309Z,17.32
2018-05-15T06:34:02.620Z,17.07
2018-05-15T06:35:02.632Z,16.85
2018-05-15T06:36:02.629Z,17.33
2018-05-15T06:37:02.638Z,16.95
2018-05-15T06:38:10.609Z,17.08
2018-05-15T06:39:02.650Z,16.74
2018-05-15T06:40:02.645Z,16.49
2018-05-15T06:41:02.649Z,16.27
2018-05-15T06:42:02.655Z,16.26
2018-05-15T06:43:02.838Z,16.16
2018-05-15T06:44:02.658Z,16.07
2018-05-15T06:45:02.664Z,16.15
2018-05-15T06:46:02.675Z,15.96
2018-05-15T06:47:02.671Z,16.40
2018-05-15T06:48:02.679Z,16.04
2018-05-15T06:49:04.616Z,16.56
2018-05-15T06:50:02.717Z,17.28
2018-05-15T06:51:02.689Z,17.63
2018-05-15T06:52:02.690Z,17.22
2018-05-15T06:53:02.789Z,17.32
2018-05-15T06:54:03.672Z,17.04
2018-05-15T06:55:02.701Z,16.93
2018-05-15T06:56:02.717Z,16.70
2018-05-15T06:57:02.710Z,16.81
2018-05-15T06:58:04.631Z,17.03
2018-05-15T06:59:02.722Z,17.32
2018-05-15T07:00:02.729Z,17.57
2018-05-15T07:01:02.729Z,17.40
2018-05-15T07:02:02.732Z,17.14
2018-05-15T07:03:02.780Z,17.35
2018-05-15T07:04:02.759Z,17.44
2018-05-15T07:05:02.745Z,17.14
2018-05-15T07:06:02.751Z,16.92
2018-05-15T07:07:02.757Z,17.20
2018-05-15T07:08:06.313Z,17.54
2018-05-15T07:09:02.767Z,17.55
2018-05-15T07:10:02.774Z,17.94
2018-05-15T07:11:02.780Z,18.55
2018-05-15T07:12:02.784Z,17.66
2018-05-15T07:14:34.515Z,16.55
2018-05-15T07:15:34.455Z,15.94
2018-05-15T07:16:34.459Z,16.03
2018-05-15T07:17:34.524Z,16.16
2018-05-15T07:18:34.462Z,16.92
2018-05-15T07:19:34.536Z,17.69
2018-05-15T07:20:34.475Z,17.94
2018-05-15T07:21:34.477Z,17.63
2018-05-15T07:22:37.543Z,18.04
2018-05-15T07:23:34.712Z,17.85
2018-05-15T07:24:34.496Z,18.06
2018-05-15T07:25:35.369Z,17.62
2018-05-15T07:26:34.525Z,17.50
2018-05-15T07:27:34.509Z,17.55
2018-05-15T07:28:35.060Z,17.67
2018-05-15T07:29:34.520Z,18.42
2018-05-15T07:30:34.533Z,18.02
2018-05-15T07:31:34.533Z,17.57
2018-05-15T07:32:34.538Z,17.84
2018-05-15T07:33:45.593Z,18.13
2018-05-15T07:34:35.208Z,18.03
2018-05-15T07:35:34.550Z,17.85
2018-05-15T07:36:34.558Z,17.64
2018-05-15T07:37:34.573Z,17.15
2018-05-15T07:38:49.036Z,16.50
2018-05-15T07:39:34.582Z,16.30
2018-05-15T07:40:34.582Z,16.55
2018-05-15T07:41:34.587Z,16.81
2018-05-15T07:42:34.596Z,16.73
2018-05-15T07:43:34.603Z,16.56
2018-05-15T07:44:49.301Z,16.85
2018-05-15T07:45:34.607Z,17.15
2018-05-15T07:46:34.621Z,17.33
2018-05-15T07:47:34.628Z,17.10
2018-05-15T07:48:45.555Z,16.93
2018-05-15T07:49:34.628Z,16.78
2018-05-15T07:50:34.636Z,16.68
2018-05-15T07:51:34.644Z,16.68
2018-05-15T07:52:34.643Z,16.50
2018-05-15T07:53:34.738Z,16.40
2018-05-15T07:54:40.119Z,16.14
2018-05-15T07:55:34.660Z,15.94
2018-05-15T07:56:34.669Z,16.01
2018-05-15T07:57:34.668Z,16.11
2018-05-15T07:58:34.673Z,16.14
2018-05-15T07:59:40.050Z,16.59
2018-05-15T08:00:34.684Z,16.40
2018-05-15T08:01:34.994Z,16.49
2018-05-15T08:02:34.704Z,16.78
2018-05-15T08:03:34.695Z,16.88
2018-05-15T08:04:34.750Z,17.07
2018-05-15T08:05:34.705Z,17.30
2018-05-15T08:06:34.710Z,17.28
2018-05-15T08:07:36.028Z,17.17
2018-05-15T08:08:34.732Z,16.90
2018-05-15T08:09:34.728Z,17.07
2018-05-15T08:10:34.771Z,17.03
2018-05-15T08:11:34.744Z,16.81
2018-05-15T08:12:34.744Z,17.06
2018-05-15T08:13:34.736Z,17.18
2018-05-15T08:14:34.754Z,17.15
2018-05-15T08:15:38.107Z,17.74
2018-05-15T08:16:34.750Z,18.49
2018-05-15T08:17:34.751Z,18.34
2018-05-15T08:18:34.757Z,17.97
2018-05-15T08:19:45.556Z,17.87
2018-05-15T08:20:34.770Z,17.57
2018-05-15T08:21:34.776Z,18.06
2018-05-15T08:22:35.220Z,18.15
2018-05-15T08:23:34.835Z,18.47
2018-05-15T08:24:34.794Z,18.47
2018-05-15T08:25:34.801Z,17.79
2018-05-15T08:26:34.810Z,18.10
2018-05-15T08:27:34.813Z,17.43
2018-05-15T08:31:46.140Z,17.35
2018-05-15T08:32:38.488Z,17.18
2018-05-15T08:35:47.242Z,17.43
2018-05-15T08:36:10.139Z,17.59
2018-05-15T08:37:10.144Z,17.59
2018-05-15T08:38:10.147Z,18.25
2018-05-15T08:39:31.765Z,18.42
2018-05-15T08:40:10.156Z,18.44
2018-05-15T08:41:10.162Z,18.33
2018-05-15T08:42:10.187Z,18.49
2018-05-15T08:43:10.180Z,18.72
2018-05-15T08:44:10.184Z,18.47
2018-05-15T08:45:10.316Z,18.58
2018-05-15T08:46:10.201Z,19.38
2018-05-15T08:47:10.196Z,19.42
2018-05-15T08:48:10.209Z,18.59
2018-05-15T08:49:10.212Z,18.70
2018-05-15T08:50:28.748Z,18.15
2018-05-15T08:51:10.228Z,18.15
2018-05-15T08:52:10.233Z,18.03
2018-05-15T08:53:10.256Z,18.21
2018-05-15T08:54:10.245Z,18.07
2018-05-15T08:55:15.760Z,17.99
2018-05-15T08:56:10.262Z,17.79
2018-05-15T08:57:10.267Z,18.52
2018-05-15T08:58:10.357Z,18.68
2018-05-15T08:59:10.343Z,19.13
2018-05-15T09:00:33.658Z,19.06
2018-05-15T09:01:10.374Z,19.11
2018-05-15T09:02:10.402Z,19.35
2018-05-15T09:03:10.447Z,19.87
2018-05-15T09:04:10.363Z,20.02
2018-05-15T09:05:12.258Z,20.53
2018-05-15T09:06:10.406Z,20.71
2018-05-15T09:07:10.364Z,19.80
2018-05-15T09:08:10.584Z,19.58
2018-05-15T09:09:10.465Z,19.13
2018-05-15T09:10:11.231Z,18.77
2018-05-15T09:11:10.878Z,18.44
2018-05-15T09:12:10.383Z,18.49
2018-05-15T09:13:10.391Z,18.91
2018-05-15T09:14:10.404Z,18.73
2018-05-15T09:15:10.495Z,18.91
2018-05-15T09:16:15.753Z,19.15
2018-05-15T09:17:10.572Z,18.65
2018-05-15T09:18:10.446Z,18.33
2018-05-15T09:19:10.454Z,18.18
2018-05-15T09:20:12.248Z,18.15
2018-05-15T09:21:10.472Z,18.43
2018-05-15T09:22:11.295Z,18.29
2018-05-15T09:23:10.474Z,18.31
2018-05-15T09:24:10.484Z,18.03
2018-05-15T09:25:42.256Z,18.36
2018-05-15T09:26:10.494Z,18.44
2018-05-15T09:27:10.921Z,18.46
2018-05-15T09:28:10.758Z,18.83
2018-05-15T09:29:10.605Z,19.01
2018-05-15T09:30:11.332Z,19.02
2018-05-15T09:31:10.534Z,19.01
2018-05-15T09:32:10.544Z,18.59
2018-05-15T09:33:10.525Z,18.91
2018-05-15T09:34:10.547Z,18.91
2018-05-15T09:35:11.261Z,18.98
2018-05-15T09:36:12.251Z,18.74
2018-05-15T09:37:10.669Z,18.21
2018-05-15T09:38:10.572Z,18.59
2018-05-15T09:39:10.580Z,18.49
2018-05-15T09:40:12.255Z,18.64
2018-05-15T09:41:11.016Z,18.91
2018-05-15T09:42:10.675Z,18.77
2018-05-15T09:43:10.613Z,18.95
2018-05-15T09:44:10.614Z,18.72
2018-05-15T09:45:21.262Z,18.44
2018-05-15T09:46:10.699Z,18.70
2018-05-15T09:47:11.695Z,19.93
2018-05-15T09:48:12.135Z,20.18
2018-05-15T09:49:10.650Z,20.47
2018-05-15T09:50:10.652Z,20.93
2018-05-15T09:52:47.918Z,21.11
2018-05-15T09:53:42.339Z,22.09
2018-05-15T09:54:42.338Z,22.90
2018-05-15T09:56:04.401Z,21.72
2018-05-15T09:56:42.473Z,22.19
2018-05-15T09:57:42.368Z,22.44
2018-05-15T09:58:43.296Z,22.97
2018-05-15T09:59:42.387Z,23.49
2018-05-15T10:00:42.395Z,24.20
2018-05-15T10:02:04.434Z,24.35
2018-05-15T10:02:42.423Z,24.69
2018-05-15T10:03:42.438Z,24.35
2018-05-15T10:04:42.441Z,23.22
2018-05-15T10:05:42.457Z,21.90
2018-05-15T10:06:42.618Z,21.95
2018-05-15T10:07:43.180Z,22.74
2018-05-15T10:08:42.502Z,23.82
2018-05-15T10:09:42.523Z,23.61
2018-05-15T10:10:42.520Z,22.90
2018-05-15T10:11:42.591Z,21.51
2018-05-15T10:12:42.721Z,20.56
2018-05-15T10:13:42.581Z,20.23
2018-05-15T10:14:42.580Z,19.86
2018-05-15T10:15:42.600Z,19.25
2018-05-15T10:16:42.610Z,19.87
2018-05-15T10:17:42.795Z,19.78
2018-05-15T10:18:42.635Z,19.36
2018-05-15T10:19:42.646Z,19.10
2018-05-15T10:20:42.654Z,19.72
2018-05-15T10:21:42.662Z,20.16
2018-05-15T10:22:42.680Z,20.72
2018-05-15T10:24:11.432Z,20.49
2018-05-15T10:24:42.715Z,19.95
2018-05-15T10:25:42.708Z,19.54
2018-05-15T10:26:42.720Z,19.48
2018-05-15T10:27:42.731Z,19.72
2018-05-15T10:28:50.435Z,19.39
2018-05-15T10:29:42.754Z,19.55
2018-05-15T10:30:42.762Z,18.92
2018-05-15T10:31:42.773Z,18.92
2018-05-15T10:32:42.906Z,20.24
2018-05-15T10:33:42.824Z,21.01
2018-05-15T10:34:42.796Z,21.01
2018-05-15T10:35:42.808Z,20.81
2018-05-15T10:36:42.818Z,20.25
2018-05-15T10:37:42.825Z,20.47
2018-05-15T10:38:42.901Z,20.66
2018-05-15T10:39:42.845Z,20.83
2018-05-15T10:40:42.852Z,21.01
2018-05-15T10:41:42.862Z,21.54
2018-05-15T10:42:42.897Z,21.83
2018-05-15T10:43:42.934Z,23.05
2018-05-15T10:44:42.902Z,22.77
2018-05-15T10:45:42.910Z,21.59
2018-05-15T10:46:42.945Z,21.66
2018-05-15T10:47:42.931Z,21.21
2018-05-15T10:48:43.010Z,21.74
2018-05-15T10:49:42.974Z,21.97
2018-05-15T10:50:42.985Z,21.79
2018-05-15T10:51:42.977Z,21.64
2018-05-15T10:52:43.143Z,21.83
2018-05-15T10:53:43.049Z,21.75
2018-05-15T10:54:43.010Z,20.68
2018-05-15T10:55:43.028Z,20.53
2018-05-15T10:56:43.036Z,20.62
2018-05-15T10:57:43.051Z,20.86
2018-05-15T10:58:46.437Z,20.25
2018-05-15T10:59:43.100Z,20.21
2018-05-15T11:00:43.072Z,20.46
2018-05-15T11:01:43.713Z,20.93
2018-05-15T11:02:43.100Z,21.08
2018-05-15T11:03:43.260Z,20.74
2018-05-15T11:04:43.127Z,21.29
2018-05-15T11:05:43.125Z,20.69
2018-05-15T11:06:43.141Z,21.53
2018-05-15T11:07:43.146Z,22.57
2018-05-15T11:08:43.163Z,22.69
2018-05-15T11:09:43.465Z,22.71
2018-05-15T11:10:43.182Z,22.43
2018-05-15T11:11:43.186Z,21.90
2018-05-15T11:12:43.325Z,21.78
2018-05-15T11:13:43.258Z,21.29
2018-05-15T11:14:43.222Z,20.27
2018-05-15T11:15:43.235Z,20.03
2018-05-15T11:16:43.242Z,20.41
2018-05-15T11:17:43.255Z,19.94
2018-05-15T11:18:43.310Z,19.88
2018-05-15T11:19:43.271Z,19.31
2018-05-15T11:20:43.292Z,19.18
2018-05-15T11:21:43.300Z,19.17
2018-05-15T11:22:43.324Z,19.18
2018-05-15T11:23:57.535Z,19.02
2018-05-15T11:24:43.329Z,19.11
2018-05-15T11:25:43.328Z,19.31
2018-05-15T11:26:43.367Z,19.13
2018-05-15T11:27:43.350Z,19.14
2018-05-15T11:28:43.359Z,19.43
2018-05-15T11:29:43.445Z,19.60
2018-05-15T11:30:43.374Z,19.10
2018-05-15T11:31:43.381Z,18.90
2018-05-15T11:32:43.390Z,19.01
2018-05-15T11:33:43.609Z,18.86
2018-05-15T11:34:43.951Z,18.86
2018-05-15T11:35:43.435Z,18.74
2018-05-15T11:36:43.416Z,18.87
2018-05-15T11:37:43.423Z,18.73
2018-05-15T11:38:43.423Z,18.83
2018-05-15T11:39:43.435Z,18.39
2018-05-15T11:40:43.485Z,18.33
2018-05-15T11:41:43.528Z,17.99
2018-05-15T11:42:43.450Z,17.85
2018-05-15T11:43:43.459Z,17.87
2018-05-15T11:44:43.470Z,17.74
2018-05-15T11:45:43.508Z,17.69
2018-05-15T11:46:43.472Z,17.53
2018-05-15T11:47:43.729Z,17.25
2018-05-15T11:48:43.902Z,16.96
2018-05-15T11:49:44.184Z,16.95
2018-05-15T11:50:45.660Z,17.06
2018-05-15T11:51:44.268Z,17.03
2018-05-15T11:52:44.730Z,17.03
2018-05-15T11:53:43.515Z,17.13
2018-05-15T11:54:43.585Z,16.98
2018-05-15T11:55:43.515Z,16.71
2018-05-15T11:56:43.522Z,16.37
2018-05-15T11:57:43.526Z,16.42
2018-05-15T11:58:43.530Z,16.42
2018-05-15T11:59:43.590Z,17.06
2018-05-15T12:00:43.586Z,18.12
2018-05-15T12:01:43.538Z,19.11
2018-05-15T12:02:43.584Z,19.33
2018-05-15T12:03:43.564Z,19.61
2018-05-15T12:04:43.556Z,19.55
2018-05-15T12:06:04.964Z,20.42
2018-05-15T12:06:43.567Z,21.16
2018-05-15T12:07:43.570Z,20.99
2018-05-15T12:08:43.580Z,21.34
2018-05-15T12:09:43.589Z,21.38
2018-05-15T12:10:54.465Z,21.71
2018-05-15T12:11:43.604Z,22.56
2018-05-15T12:12:43.616Z,23.64
2018-05-15T12:13:43.624Z,24.53
2018-05-15T12:14:43.632Z,24.97
2018-05-15T12:15:44.350Z,24.68
2018-05-15T12:16:43.727Z,23.68
2018-05-15T12:17:43.686Z,23.39
2018-05-15T12:18:46.410Z,23.14
2018-05-15T12:19:58.452Z,23.14
2018-05-15T12:21:05.473Z,23.22
2018-05-15T12:21:43.699Z,22.90
2018-05-15T12:22:44.434Z,22.54
2018-05-15T12:23:43.777Z,22.29
2018-05-15T12:24:43.743Z,22.07
2018-05-15T12:25:44.766Z,21.51
2018-05-15T12:26:43.833Z,20.72
2018-05-15T12:27:43.857Z,20.54
2018-05-15T12:28:43.792Z,20.72
2018-05-15T12:29:43.801Z,20.51
2018-05-15T12:30:43.854Z,20.09
2018-05-15T12:32:04.836Z,19.95
2018-05-15T12:32:44.494Z,19.84
2018-05-15T12:33:44.420Z,19.61
2018-05-15T12:34:43.957Z,19.33
2018-05-15T12:35:44.082Z,19.38
2018-05-15T12:36:56.861Z,19.86
2018-05-15T12:37:45.453Z,20.27
2018-05-15T12:38:43.892Z,20.49
2018-05-15T12:39:48.436Z,21.14
2018-05-15T12:40:44.018Z,21.32
2018-05-15T12:41:45.007Z,21.63
2018-05-15T12:42:43.979Z,21.60
2018-05-15T12:43:44.932Z,21.95
2018-05-15T12:45:01.943Z,22.32
2018-05-15T12:45:44.972Z,22.71
2018-05-15T12:46:44.106Z,22.68
2018-05-15T12:47:51.012Z,23.42
2018-05-15T12:48:44.079Z,23.09
2018-05-15T12:49:44.875Z,22.71
2018-05-15T12:50:54.975Z,22.32
2018-05-15T12:51:44.045Z,21.78
2018-05-15T12:52:44.078Z,21.76
2018-05-15T12:53:44.070Z,21.63
2018-05-15T12:54:44.140Z,22.35
2018-05-15T12:55:44.164Z,22.35
2018-05-15T12:56:44.116Z,21.30
2018-05-15T12:57:44.938Z,21.78
2018-05-15T12:58:44.159Z,22.10
2018-05-15T12:59:49.062Z,22.78
2018-05-15T13:00:44.473Z,22.39
2018-05-15T13:02:05.195Z,21.41
2018-05-15T13:02:44.239Z,21.60
2018-05-15T13:03:44.220Z,21.67
2018-05-15T13:04:44.247Z,22.06
2018-05-15T13:05:44.314Z,22.14
2018-05-15T13:06:44.304Z,22.12
2018-05-15T13:07:44.287Z,22.02
2018-05-15T13:08:45.060Z,22.32
2018-05-15T13:09:44.446Z,23.05
2018-05-15T13:10:44.571Z,23.09
2018-05-15T13:11:44.315Z,22.13
2018-05-15T13:12:44.336Z,22.28
2018-05-15T13:13:46.967Z,22.28
2018-05-15T13:14:44.363Z,22.12
2018-05-15T13:15:54.017Z,21.39
2018-05-15T13:16:44.392Z,21.21
2018-05-15T13:17:46.364Z,21.75
2018-05-15T13:18:45.674Z,21.53
2018-05-15T13:19:51.065Z,21.57
2018-05-15T13:20:45.517Z,20.72
2018-05-15T13:21:47.482Z,20.35
2018-05-15T13:22:45.440Z,20.38
2018-05-15T13:23:44.459Z,19.68
2018-05-15T13:24:45.119Z,19.31
2018-05-15T13:25:57.787Z,19.14
2018-05-15T13:26:44.491Z,18.76
2018-05-15T13:28:16.291Z,18.47
2018-05-15T13:28:44.518Z,18.03
2018-05-15T13:29:46.486Z,17.84
2018-05-15T13:30:44.532Z,17.88
2018-05-15T13:31:55.451Z,17.46
2018-05-15T13:32:49.430Z,17.40
2018-05-15T13:34:00.957Z,17.30